Time;durP1;ratioP1;P1;durP2;ratioP2;P2;SDS_P1;SDS_P2;PMS_P1;PMS_P2;Temp;Humidity;BMP_temperature;BMP_pressure;BME280_temperature;BME280_humidity;BME280_pressure;Samples;Min_cycle;Max_cycle;Signal;HPM_P1;HPM_P2
2022/08/13 00:00:31;;;;;;;4.13;2.45;;;;;;;;;;5111606;28;20027;-74
2022/08/13 00:02:57;;;;;;;8.35;3.05;;;20.90;99.90;;;;;;5106382;27;20039;-75
2022/08/13 00:05:24;;;;;;;4.82;3.15;;;;;;;;;;5122492;27;20527;-75
2022/08/13 00:07:50;;;;;;;6.93;2.55;;;;;;;;;;5113125;27;20019;-75
2022/08/13 00:13:00;;;;;;;4.65;2.50;;;20.70;99.90;;;;;;5110771;27;20120;-74
2022/08/13 00:15:30;;;;;;;6.15;3.22;;;;;;;;;;5097133;28;20036;-74
2022/08/13 00:18:00;;;;;;;5.93;2.92;;;;;;;;;;5112098;27;20023;-75
2022/08/13 00:20:28;;;;;;;4.05;2.50;;;;;;;;;;5100766;27;20032;-75
2022/08/13 00:22:55;;;;;;;3.95;2.53;;;;;;;;;;5111176;28;20047;-78
2022/08/13 00:25:22;;;;;;;5.32;3.10;;;;;;;;;;5092202;28;20035;-74
2022/08/13 00:27:49;;;;;;;6.95;2.83;;;20.50;99.90;;;;;;5095637;28;20024;-75
2022/08/13 00:30:16;;;;;;;6.00;2.88;;;;;;;;;;5088082;27;20024;-74
2022/08/13 00:32:45;;;;;;;8.05;3.03;;;;;;;;;;5096642;28;20103;-75
2022/08/13 00:35:12;;;;;;;5.43;2.67;;;20.10;99.90;;;;;;5110532;28;20024;-74
2022/08/13 00:37:41;;;;;;;4.32;2.90;;;;;;;;;;5111961;28;20401;-74
2022/08/13 00:40:11;;;;;;;4.00;3.13;;;20.30;99.90;;;;;;5101471;28;20540;-74
2022/08/13 00:42:38;;;;;;;7.07;3.00;;;;;;;;;;5105400;28;20060;-75
2022/08/13 00:45:08;;;;;;;10.63;2.90;;;;;;;;;;5109519;28;20475;-74
2022/08/13 00:50:19;;;;;;;7.20;2.75;;;;;;;;;;5104458;28;20536;-74
2022/08/13 00:52:45;;;;;;;13.10;3.58;;;19.80;99.90;;;;;;5097676;27;20024;-74
2022/08/13 00:55:15;;;;;;;7.50;3.13;;;;;;;;;;5080700;28;20205;-74
2022/08/13 00:57:43;;;;;;;7.95;3.50;;;;;;;;;;5092810;28;20024;-74
2022/08/13 01:00:15;;;;;;;4.43;2.78;;;;;;;;;;5102492;28;20028;-75
2022/08/13 01:02:42;;;;;;;8.05;2.85;;;19.60;99.90;;;;;;5111584;28;20395;-74
2022/08/13 01:05:09;;;;;;;8.20;3.10;;;;;;;;;;5106121;27;20027;-74
2022/08/13 01:07:36;;;;;;;7.97;2.97;;;;;;;;;;5111156;28;20032;-74
2022/08/13 01:10:02;;;;;;;8.60;2.92;;;;;;;;;;5104060;27;20062;-74
2022/08/13 01:12:28;;;;;;;4.20;2.65;;;;;;;;;;5115058;27;20039;-74
2022/08/13 01:14:55;;;;;;;3.20;2.88;;;;;;;;;;5084935;28;20068;-77
2022/08/13 01:17:22;;;;;;;8.65;2.70;;;;;;;;;;5096064;28;20020;-75
2022/08/13 01:19:49;;;;;;;3.88;2.78;;;19.60;99.90;;;;;;5101589;28;20039;-74
2022/08/13 01:22:19;;;;;;;5.20;2.85;;;19.60;99.90;;;;;;5109348;28;20047;-75
2022/08/13 01:24:44;;;;;;;6.55;2.70;;;19.60;99.90;;;;;;5092969;28;20028;-73
2022/08/13 01:27:13;;;;;;;4.03;2.72;;;;;;;;;;5108297;27;20043;-74
2022/08/13 01:29:39;;;;;;;2.90;2.35;;;;;;;;;;5108251;27;20396;-74
2022/08/13 01:32:07;;;;;;;5.95;2.65;;;;;;;;;;5110975;28;20035;-74
2022/08/13 01:34:33;;;;;;;6.25;2.45;;;19.40;99.90;;;;;;5096027;27;20482;-74
2022/08/13 01:37:00;;;;;;;10.18;2.65;;;;;;;;;;5115384;27;20040;-74
2022/08/13 01:39:27;;;;;;;5.25;2.28;;;19.50;99.90;;;;;;5119531;27;20039;-74
2022/08/13 01:41:53;;;;;;;6.30;2.25;;;;;;;;;;5093658;28;20436;-74
2022/08/13 01:44:20;;;;;;;3.42;2.40;;;;;;;;;;5107873;27;20052;-75
2022/08/13 01:52:16;;;;;;;2.92;2.22;;;19.40;99.90;;;;;;5093793;28;20051;-74
2022/08/13 01:54:44;;;;;;;2.85;2.10;;;;;;;;;;5094876;28;20031;-77
2022/08/13 01:57:11;;;;;;;9.48;2.42;;;;;;;;;;5094052;27;20031;-74
2022/08/13 01:59:38;;;;;;;5.45;2.22;;;19.30;99.90;;;;;;5110743;28;20020;-74
2022/08/13 02:02:08;;;;;;;3.28;2.03;;;19.60;99.90;;;;;;5111013;28;20180;-75
2022/08/13 02:04:34;;;;;;;5.50;1.90;;;;;;;;;;5106331;28;20032;-75
2022/08/13 02:07:01;;;;;;;6.43;3.10;;;;;;;;;;5110939;27;20056;-74
2022/08/13 02:09:26;;;;;;;4.60;1.90;;;19.40;99.90;;;;;;5103380;27;20359;-74
2022/08/13 02:11:53;;;;;;;7.60;2.20;;;;;;;;;;5116075;27;20099;-75
2022/08/13 02:14:21;;;;;;;2.53;1.90;;;;;;;;;;5088270;27;20032;-74
2022/08/13 02:16:47;;;;;;;4.32;1.65;;;19.40;99.90;;;;;;5103369;28;20026;-75
2022/08/13 02:19:13;;;;;;;8.18;2.47;;;;;;;;;;5108812;28;20115;-74
2022/08/13 02:21:42;;;;;;;8.65;1.70;;;19.60;99.90;;;;;;5102575;28;20114;-74
2022/08/13 02:24:13;;;;;;;5.40;2.00;;;;;;;;;;5108196;28;20035;-74
2022/08/13 02:26:43;;;;;;;2.65;1.67;;;19.40;99.90;;;;;;5108728;28;20096;-74
2022/08/13 02:29:11;;;;;;;5.00;1.63;;;;;;;;;;5104388;27;20032;-75
2022/08/13 02:31:37;;;;;;;4.85;2.00;;;;;;;;;;5101076;27;20081;-74
2022/08/13 02:34:04;;;;;;;6.10;1.92;;;;;;;;;;5102102;28;20020;-74
2022/08/13 02:36:30;;;;;;;5.05;2.05;;;19.50;99.90;;;;;;5092435;28;20028;-74
2022/08/13 02:39:00;;;;;;;4.10;1.83;;;19.40;99.90;;;;;;5098305;28;20023;-75
2022/08/13 02:41:39;;;;;;;5.97;1.80;;;;;;;;;;5104832;28;21098;-74
2022/08/13 02:44:12;;;;;;;9.80;2.00;;;19.40;99.90;;;;;;5100113;28;20031;-74
2022/08/13 02:46:39;;;;;;;5.25;1.95;;;;;;;;;;5104660;28;20429;-77
2022/08/13 02:49:05;;;;;;;6.68;1.80;;;;;;;;;;5095782;28;20027;-75
2022/08/13 02:51:31;;;;;;;9.20;2.28;;;;;;;;;;5106417;28;20032;-74
2022/08/13 02:54:01;;;;;;;4.90;1.92;;;;;;;;;;5100954;28;20031;-74
2022/08/13 02:56:28;;;;;;;6.70;2.00;;;;;;;;;;5103218;28;20047;-74
2022/08/13 02:58:55;;;;;;;2.47;1.83;;;;;;;;;;5112856;27;20042;-75
2022/08/13 03:01:25;;;;;;;5.50;2.03;;;19.20;99.90;;;;;;5124444;27;20084;-74
2022/08/13 03:03:52;;;;;;;11.70;1.85;;;;;;;;;;5102705;28;20028;-75
2022/08/13 03:06:19;;;;;;;12.80;2.30;;;;;;;;;;5113178;28;20032;-74
2022/08/13 03:08:46;;;;;;;4.55;1.67;;;;;;;;;;5083110;28;20050;-74
2022/08/13 03:11:12;;;;;;;6.65;1.92;;;;;;;;;;5107484;27;20096;-74
2022/08/13 03:13:40;;;;;;;12.20;2.30;;;19.20;99.90;;;;;;5103341;28;20503;-75
2022/08/13 03:16:07;;;;;;;3.90;2.10;;;;;;;;;;5111752;27;20152;-74
2022/08/13 03:18:34;;;;;;;4.45;2.17;;;18.70;99.90;;;;;;5102813;28;20039;-74
2022/08/13 03:21:00;;;;;;;5.40;2.05;;;;;;;;;;5102426;28;20040;-74
2022/08/13 03:23:29;;;;;;;5.50;2.15;;;;;;;;;;5102579;28;20486;-74
2022/08/13 03:25:55;;;;;;;2.20;2.00;;;;;;;;;;5126613;27;20103;-75
2022/08/13 03:28:22;;;;;;;3.25;2.00;;;18.90;99.90;;;;;;5105603;28;20063;-74
2022/08/13 03:30:48;;;;;;;6.22;1.90;;;;;;;;;;5096996;28;20063;-75
2022/08/13 03:33:14;;;;;;;7.30;2.05;;;19.00;99.90;;;;;;5082102;28;20039;-74
2022/08/13 03:35:41;;;;;;;7.57;2.15;;;;;;;;;;5113105;27;20031;-74
2022/08/13 03:38:08;;;;;;;3.70;1.77;;;;;;;;;;5099923;28;20050;-74
2022/08/13 03:43:19;;;;;;;3.53;2.10;;;;;;;;;;5109169;28;20088;-74
2022/08/13 03:45:46;;;;;;;4.65;2.00;;;;;;;;;;5108110;27;20026;-74
2022/08/13 03:48:15;;;;;;;2.38;1.58;;;;;;;;;;5094705;28;20051;-74
2022/08/13 03:50:42;;;;;;;2.40;1.70;;;;;;;;;;5112524;27;20024;-74
2022/08/13 03:53:09;;;;;;;2.75;1.75;;;;;;;;;;5100184;28;20125;-74
2022/08/13 03:55:37;;;;;;;5.13;1.90;;;;;;;;;;5110855;28;20044;-74
2022/08/13 03:58:05;;;;;;;8.07;2.05;;;;;;;;;;5114718;28;20031;-76
2022/08/13 04:00:35;;;;;;;4.22;2.20;;;;;;;;;;5107048;28;20023;-75
2022/08/13 04:03:12;;;;;;;3.78;2.33;;;;;;;;;;5103424;28;20458;-75
2022/08/13 04:05:39;;;;;;;8.00;2.00;;;;;;;;;;5109127;27;20067;-75
2022/08/13 04:08:05;;;;;;;3.60;2.30;;;;;;;;;;5109764;28;20062;-74
2022/08/13 04:10:31;;;;;;;4.47;2.10;;;;;;;;;;5097543;28;20654;-74
2022/08/13 04:12:57;;;;;;;5.70;1.98;;;;;;;;;;5125195;27;20047;-74
2022/08/13 04:15:23;;;;;;;4.55;1.70;;;;;;;;;;5109768;27;20122;-74
2022/08/13 04:17:49;;;;;;;3.88;2.17;;;;;;;;;;5102400;28;20109;-75
2022/08/13 04:20:18;;;;;;;5.35;2.10;;;;;;;;;;5104686;27;20039;-74
2022/08/13 04:22:44;;;;;;;3.08;1.80;;;18.60;99.90;;;;;;5107060;27;20467;-73
2022/08/13 04:25:11;;;;;;;5.25;2.10;;;;;;;;;;5117809;27;20043;-74
2022/08/13 04:27:37;;;;;;;3.33;1.90;;;;;;;;;;5103592;28;20035;-76
2022/08/13 04:30:05;;;;;;;4.85;2.53;;;;;;;;;;5101773;27;20031;-75
2022/08/13 04:32:40;;;;;;;5.53;2.42;;;;;;;;;;5097072;28;20570;-74
2022/08/13 04:35:06;;;;;;;3.33;1.70;;;;;;;;;;5111235;27;20035;-74
2022/08/13 04:37:32;;;;;;;6.68;2.30;;;;;;;;;;5110139;27;20050;-74
2022/08/13 04:39:58;;;;;;;7.03;2.22;;;;;;;;;;5101838;27;20384;-75
2022/08/13 04:42:24;;;;;;;5.28;1.65;;;;;;;;;;5097146;27;20055;-74
2022/08/13 04:44:50;;;;;;;3.00;2.10;;;;;;;;;;5097124;27;20043;-74
2022/08/13 04:47:17;;;;;;;6.40;1.90;;;;;;;;;;5108088;28;20080;-74
2022/08/13 04:49:43;;;;;;;2.55;2.03;;;;;;;;;;5103231;27;20036;-74
2022/08/13 04:52:09;;;;;;;5.55;1.70;;;;;;;;;;5110620;28;20030;-74
2022/08/13 04:54:36;;;;;;;4.07;1.67;;;;;;;;;;5107019;28;20081;-75
2022/08/13 04:57:02;;;;;;;7.47;2.35;;;;;;;;;;5108479;28;20080;-74
2022/08/13 04:59:28;;;;;;;3.47;1.55;;;;;;;;;;5120430;27;20021;-77
2022/08/13 05:01:54;;;;;;;7.97;2.10;;;;;;;;;;5106821;28;20108;-75
2022/08/13 05:04:20;;;;;;;8.43;1.80;;;;;;;;;;5105991;27;20109;-75
2022/08/13 05:06:49;;;;;;;8.25;1.98;;;;;;;;;;5099370;28;20333;-74
2022/08/13 05:09:15;;;;;;;7.60;1.77;;;;;;;;;;5096018;27;20088;-74
2022/08/13 05:11:41;;;;;;;5.07;1.75;;;;;;;;;;5108360;27;20118;-74
2022/08/13 05:14:07;;;;;;;4.95;1.83;;;;;;;;;;5092924;28;20092;-74
2022/08/13 05:16:32;;;;;;;5.35;2.08;;;18.70;99.90;;;;;;5104570;27;20043;-74
2022/08/13 05:18:58;;;;;;;2.92;1.65;;;;;;;;;;5106794;28;20917;-74
2022/08/13 05:21:25;;;;;;;3.75;1.70;;;;;;;;;;5108336;28;20043;-74
2022/08/13 05:23:55;;;;;;;7.63;2.15;;;18.70;99.90;;;;;;5100626;28;20027;-74
2022/08/13 05:26:22;;;;;;;5.50;2.00;;;;;;;;;;5119571;27;20360;-77
2022/08/13 05:28:49;;;;;;;7.70;2.10;;;;;;;;;;5092260;28;20032;-75
2022/08/13 05:31:17;;;;;;;3.45;1.60;;;;;;;;;;5089228;28;20406;-74
2022/08/13 05:33:43;;;;;;;3.45;2.08;;;19.00;99.90;;;;;;5092700;28;20460;-73
2022/08/13 05:36:09;;;;;;;2.40;1.58;;;;;;;;;;5099059;27;20035;-74
2022/08/13 05:38:36;;;;;;;3.78;1.73;;;19.10;99.90;;;;;;5112884;27;20036;-73
2022/08/13 05:41:03;;;;;;;2.03;1.75;;;;;;;;;;5100608;28;20052;-73
2022/08/13 05:43:33;;;;;;;2.50;1.83;;;19.10;99.90;;;;;;5103154;28;20635;-74
2022/08/13 05:46:09;;;;;;;2.95;2.20;;;;;;;;;;5106370;28;20162;-73
2022/08/13 05:48:39;;;;;;;6.68;1.95;;;;;;;;;;5087460;28;20043;-75
2022/08/13 05:51:08;;;;;;;4.07;1.90;;;;;;;;;;5103146;28;20051;-73
2022/08/13 05:53:38;;;;;;;3.05;2.00;;;19.40;99.90;;;;;;5093630;28;20111;-72
2022/08/13 05:56:11;;;;;;;2.88;1.70;;;;;;;;;;5108266;27;20056;-73
2022/08/13 05:58:37;;;;;;;7.53;1.58;;;;;;;;;;5111415;27;20340;-73
2022/08/13 06:03:48;;;;;;;4.53;1.85;;;;;;;;;;5095208;28;20092;-73
2022/08/13 06:06:15;;;;;;;6.85;1.90;;;;;;;;;;5100150;28;20482;-73
2022/08/13 06:08:42;;;;;;;3.13;1.98;;;;;;;;;;5096989;28;20032;-73
2022/08/13 06:11:14;;;;;;;3.63;2.00;;;;;;;;;;5097982;27;20031;-73
2022/08/13 06:13:40;;;;;;;4.30;2.03;;;;;;;;;;5096369;28;20085;-75
2022/08/13 06:16:11;;;;;;;15.68;7.85;;;19.80;99.90;;;;;;5099154;28;20523;-74
2022/08/13 06:18:43;;;;;;;12.93;3.90;;;19.90;99.90;;;;;;5095098;28;20056;-74
2022/08/13 06:21:11;;;;;;;4.43;3.13;;;;;;;;;;5094833;27;20038;-74
2022/08/13 06:23:38;;;;;;;6.75;1.85;;;19.90;99.90;;;;;;5105614;28;20036;-75
2022/08/13 06:26:05;;;;;;;5.85;1.30;;;;;;;;;;5109718;27;20301;-73
2022/08/13 06:28:32;;;;;;;4.57;1.88;;;20.20;99.90;;;;;;5105098;28;20633;-73
2022/08/13 06:31:00;;;;;;;2.30;1.33;;;;;;;;;;5062612;28;20047;-74
2022/08/13 06:33:30;;;;;;;5.65;1.38;;;20.30;99.90;;;;;;5104190;28;20094;-73
2022/08/13 06:36:00;;;;;;;8.07;1.48;;;;;;;;;;5094822;27;20028;-74
2022/08/13 06:38:32;;;;;;;5.72;1.27;;;20.80;99.90;;;;;;5104410;28;20027;-74
2022/08/13 06:41:01;;;;;;;3.63;1.27;;;;;;;;;;5092262;28;20043;-74
2022/08/13 06:43:41;;;;;;;8.90;1.80;;;21.20;99.90;;;;;;5106040;28;20156;-73
2022/08/13 06:46:07;;;;;;;1.90;1.08;;;;;;;;;;5106153;28;20382;-73
2022/08/13 06:48:34;;;;;;;5.78;1.40;;;21.30;99.90;;;;;;5098160;28;20032;-74
2022/08/13 06:51:05;;;;;;;7.28;1.20;;;21.50;99.90;;;;;;5096154;28;20044;-74
2022/08/13 06:53:32;;;;;;;5.80;1.27;;;;;;;;;;5107222;28;20059;-73
2022/08/13 06:55:58;;;;;;;6.47;1.88;;;;;;;;;;5107637;28;20474;-73
2022/08/13 06:58:29;;;;;;;1.67;1.05;;;;;;;;;;5093793;28;20058;-70
2022/08/13 07:00:56;;;;;;;4.20;1.20;;;21.30;99.90;;;;;;5099898;28;20035;-70
2022/08/13 07:03:26;;;;;;;2.88;1.00;;;;;;;;;;5091502;28;20376;-70
2022/08/13 07:05:52;;;;;;;3.72;1.00;;;;;;;;;;5104103;28;20027;-70
2022/08/13 07:08:18;;;;;;;5.57;1.25;;;;;;;;;;5093971;28;20089;-71
2022/08/13 07:10:51;;;;;;;6.30;1.42;;;;;;;;;;5095685;28;20039;-71
2022/08/13 07:13:17;;;;;;;10.95;3.88;;;;;;;;;;5072674;28;20031;-72
2022/08/13 07:15:51;;;;;;;5.72;3.67;;;;;;;;;;5107393;28;20024;-72
2022/08/13 07:18:17;;;;;;;7.85;3.45;;;;;;;;;;5096328;28;20663;-71
2022/08/13 07:20:44;;;;;;;9.10;1.55;;;;;;;;;;5092010;28;20089;-71
2022/08/13 07:23:11;;;;;;;2.33;1.20;;;;;;;;;;5093251;28;20101;-71
2022/08/13 07:25:39;;;;;;;6.78;1.30;;;22.20;99.90;;;;;;5106766;27;20067;-71
2022/08/13 07:28:05;;;;;;;4.05;1.25;;;;;;;;;;5090514;28;20020;-71
2022/08/13 07:30:31;;;;;;;4.72;0.98;;;22.30;99.90;;;;;;5129514;27;20532;-71
2022/08/13 07:32:57;;;;;;;10.95;1.30;;;;;;;;;;5089757;28;20044;-72
2022/08/13 07:35:23;;;;;;;5.90;1.20;;;;;;;;;;5099167;28;20035;-73
2022/08/13 07:37:52;;;;;;;7.93;1.20;;;;;;;;;;5109594;28;20209;-71
2022/08/13 07:40:19;;;;;;;2.72;1.00;;;23.30;99.90;;;;;;5103989;28;20024;-72
2022/08/13 07:42:48;;;;;;;5.22;1.40;;;23.50;99.90;;;;;;5104688;28;20116;-71
2022/08/13 07:45:27;;;;;;;2.97;1.75;;;23.40;99.90;;;;;;5108787;28;20032;-71
2022/08/13 07:47:54;;;;;;;1.58;0.93;;;;;;;;;;5099982;27;20329;-70
2022/08/13 07:50:20;;;;;;;5.93;0.90;;;23.80;99.90;;;;;;5104967;27;20024;-68
2022/08/13 07:52:52;;;;;;;2.80;1.08;;;;;;;;;;5099310;27;20032;-69
2022/08/13 07:55:20;;;;;;;4.65;1.60;;;;;;;;;;5096972;27;20107;-68
2022/08/13 07:57:47;;;;;;;2.33;1.20;;;;;;;;;;5108289;28;20028;-69
2022/08/13 08:00:18;;;;;;;5.15;1.88;;;;;;;;;;5109659;28;20027;-68
2022/08/13 08:02:44;;;;;;;6.20;2.35;;;;;;;;;;5101703;28;20039;-68
2022/08/13 08:05:13;;;;;;;6.18;1.75;;;;;;;;;;5097871;28;20034;-70
2022/08/13 08:07:40;;;;;;;9.10;5.18;;;;;;;;;;5106379;27;20043;-72
2022/08/13 08:10:07;;;;;;;4.18;1.30;;;;;;;;;;5100173;27;20391;-70
2022/08/13 08:12:37;;;;;;;1.90;1.00;;;;;;;;;;5118484;27;20054;-69
2022/08/13 08:15:07;;;;;;;2.58;0.93;;;;;;;;;;5094969;28;20043;-68
2022/08/13 08:17:34;;;;;;;6.45;1.17;;;;;;;;;;5096416;28;20086;-68
2022/08/13 08:20:02;;;;;;;3.00;0.90;;;;;;;;;;5101049;28;20020;-68
2022/08/13 08:22:28;;;;;;;7.60;1.15;;;;;;;;;;5101304;27;20043;-68
2022/08/13 08:24:54;;;;;;;1.42;0.70;;;;;;;;;;5097924;28;20024;-67
2022/08/13 08:27:20;;;;;;;2.08;1.10;;;32.50;87.90;;;;;;5098521;28;20103;-68
2022/08/13 08:29:47;;;;;;;3.33;0.80;;;32.60;78.50;;;;;;5113843;27;20536;-69
2022/08/13 08:32:13;;;;;;;3.05;0.77;;;;;;;;;;5123678;27;20089;-68
2022/08/13 08:34:45;;;;;;;5.18;1.00;;;;;;;;;;5095626;28;20047;-68
2022/08/13 08:42:35;;;;;;;10.98;1.20;;;;;;;;;;5094638;28;20057;-68
2022/08/13 08:42:49;;;;;;;5.10;0.90;;;33.70;88.00;;;;;;5120325;27;20057;-69
2022/08/13 08:45:18;;;;;;;3.70;0.60;;;;;;;;;;5110820;28;20016;-67
2022/08/13 08:47:45;;;;;;;3.28;0.95;;;34.20;91.90;;;;;;5099942;27;20495;-67
2022/08/13 08:50:11;;;;;;;4.15;0.60;;;34.10;85.70;;;;;;5092962;28;20038;-67
2022/08/13 08:55:24;;;;;;;1.35;0.85;;;;;;;;;;5110821;28;20093;-69
2022/08/13 08:57:52;;;;;;;5.13;0.90;;;34.20;73.00;;;;;;5106246;28;20119;-69
2022/08/13 09:00:21;;;;;;;3.78;0.80;;;34.40;80.50;;;;;;5108475;27;20604;-68
2022/08/13 09:02:50;;;;;;;3.42;1.13;;;;;;;;;;5106422;28;20878;-68
2022/08/13 09:05:20;;;;;;;3.63;0.80;;;34.20;67.00;;;;;;5104468;28;20039;-68
2022/08/13 09:07:47;;;;;;;3.78;0.80;;;;;;;;;;5096505;28;20053;-68
2022/08/13 09:10:17;;;;;;;5.32;0.65;;;34.40;68.80;;;;;;5111454;27;20026;-68
2022/08/13 09:12:45;;;;;;;5.55;0.70;;;34.70;71.40;;;;;;5101824;28;20035;-69
2022/08/13 09:15:13;;;;;;;2.70;0.60;;;;;;;;;;5102115;28;20043;-70
2022/08/13 09:17:39;;;;;;;5.93;0.90;;;34.60;80.30;;;;;;5096461;27;20046;-68
2022/08/13 09:20:12;;;;;;;4.95;0.65;;;34.80;68.50;;;;;;5106168;27;20039;-68
2022/08/13 09:22:40;;;;;;;6.47;0.68;;;;;;;;;;5094172;28;20134;-68
2022/08/13 09:25:07;;;;;;;4.82;0.68;;;;;;;;;;5109345;27;20081;-68
2022/08/13 09:27:35;;;;;;;2.05;0.40;;;;;;;;;;5095842;28;20084;-68
2022/08/13 09:30:02;;;;;;;6.70;0.60;;;;;;;;;;5096177;27;20028;-68
2022/08/13 09:32:29;;;;;;;3.80;0.68;;;35.60;63.60;;;;;;5100755;27;20044;-68
2022/08/13 09:34:55;;;;;;;1.58;0.68;;;35.70;64.60;;;;;;5089817;28;20100;-68
2022/08/13 09:37:22;;;;;;;5.07;0.80;;;35.60;69.00;;;;;;5102909;28;20154;-69
2022/08/13 09:40:04;;;;;;;3.42;0.65;;;35.90;63.40;;;;;;5091012;27;20024;-68
2022/08/13 09:42:57;;;;;;;1.52;1.30;;;35.90;61.40;;;;;;5100412;28;20083;-68
2022/08/13 09:45:27;;;;;;;2.20;0.40;;;35.40;60.00;;;;;;5109851;28;20110;-69
2022/08/13 09:47:54;;;;;;;2.42;0.63;;;36.00;58.40;;;;;;5097085;28;20298;-68
2022/08/13 09:50:21;;;;;;;4.50;4.03;;;;;;;;;;5090606;27;20213;-70
2022/08/13 09:52:48;;;;;;;7.85;2.30;;;;;;;;;;5113248;27;20061;-69
2022/08/13 09:55:14;;;;;;;3.78;0.80;;;36.70;57.70;;;;;;5124214;27;20039;-70
2022/08/13 09:57:53;;;;;;;4.82;0.52;;;;;;;;;;5111359;27;20484;-70
2022/08/13 10:00:21;;;;;;;2.97;0.40;;;;;;;;;;5087384;28;20101;-69
2022/08/13 10:02:50;;;;;;;2.42;0.60;;;;;;;;;;5115171;27;20036;-69
2022/08/13 10:05:17;;;;;;;8.13;1.10;;;;;;;;;;5099676;28;20568;-69
2022/08/13 10:07:43;;;;;;;1.67;0.60;;;;;;;;;;5095851;28;20054;-70
2022/08/13 10:10:09;;;;;;;0.73;0.50;;;;;;;;;;5119927;27;20056;-70
2022/08/13 10:12:35;;;;;;;0.93;0.40;;;;;;;;;;5108234;28;20095;-70
2022/08/13 10:15:01;;;;;;;0.68;0.50;;;;;;;;;;5103220;28;20031;-69
2022/08/13 10:17:28;;;;;;;2.85;0.50;;;;;;;;;;5105513;28;20152;-70
2022/08/13 10:19:54;;;;;;;5.45;0.60;;;;;;;;;;5101341;28;20039;-69
2022/08/13 10:22:20;;;;;;;5.55;0.60;;;37.00;63.40;;;;;;5092625;28;20051;-69
2022/08/13 10:24:46;;;;;;;1.80;0.47;;;37.10;68.00;;;;;;5108515;27;20036;-69
2022/08/13 10:27:13;;;;;;;4.90;0.82;;;37.30;67.80;;;;;;5107862;28;20057;-70
2022/08/13 10:29:39;;;;;;;2.17;0.82;;;;;;;;;;5098219;28;20028;-69
2022/08/13 10:32:06;;;;;;;4.93;0.68;;;;;;;;;;5106981;28;20114;-69
2022/08/13 10:34:32;;;;;;;1.98;0.85;;;;;;;;;;5092314;28;20036;-70
2022/08/13 10:37:03;;;;;;;3.22;0.60;;;37.70;63.40;;;;;;5104933;28;20038;-70
2022/08/13 10:39:29;;;;;;;2.28;0.50;;;37.60;66.40;;;;;;5092838;28;20040;-70
2022/08/13 10:41:55;;;;;;;3.70;0.60;;;;;;;;;;5105564;28;20078;-70
2022/08/13 10:44:21;;;;;;;1.08;0.50;;;;;;;;;;5108104;28;20062;-71
2022/08/13 10:46:48;;;;;;;0.60;0.50;;;;;;;;;;5108624;28;20038;-72
2022/08/13 10:49:14;;;;;;;5.35;0.55;;;;;;;;;;5099306;28;20065;-71
2022/08/13 10:51:40;;;;;;;1.48;0.90;;;;;;;;;;5109143;28;20123;-74
2022/08/13 10:54:07;;;;;;;3.03;0.60;;;;;;;;;;5098565;28;20054;-75
2022/08/13 10:56:33;;;;;;;1.15;0.40;;;;;;;;;;5103400;28;20020;-75
2022/08/13 10:59:03;;;;;;;3.03;0.60;;;;;;;;;;5108743;28;20044;-77
2022/08/13 11:01:30;;;;;;;1.30;0.35;;;;;;;;;;5098327;28;20130;-76
2022/08/13 11:03:58;;;;;;;1.40;0.55;;;;;;;;;;5111919;28;20039;-76
2022/08/13 11:06:27;;;;;;;3.95;0.63;;;;;;;;;;5080881;28;20016;-79
2022/08/13 11:08:54;;;;;;;3.67;0.52;;;;;;;;;;5103801;28;20102;-76
2022/08/13 11:11:21;;;;;;;1.40;0.50;;;;;;;;;;5105326;28;20031;-75
2022/08/13 11:13:47;;;;;;;2.13;0.63;;;;;;;;;;5108445;28;20047;-75
2022/08/13 11:18:59;;;;;;;5.53;0.60;;;;;;;;;;5105302;28;20076;-75
2022/08/13 11:21:25;;;;;;;3.80;0.70;;;37.30;67.00;;;;;;5104013;28;20032;-73
2022/08/13 11:23:52;;;;;;;4.90;0.60;;;37.30;54.40;;;;;;5123199;27;20064;-74
2022/08/13 11:26:19;;;;;;;2.15;0.40;;;;;;;;;;5107160;28;20379;-73
2022/08/13 11:28:45;;;;;;;3.50;0.90;;;;;;;;;;5098343;27;20016;-73
2022/08/13 11:31:10;;;;;;;4.00;0.57;;;36.30;65.60;;;;;;5107484;28;20051;-73
2022/08/13 11:33:36;;;;;;;1.73;0.50;;;;;;;;;;5102921;27;20450;-74
2022/08/13 11:36:03;;;;;;;3.30;0.65;;;;;;;;;;5106381;27;20463;-74
2022/08/13 11:38:29;;;;;;;0.80;0.50;;;;;;;;;;5125584;27;20040;-75
2022/08/13 11:40:57;;;;;;;3.05;0.45;;;;;;;;;;5078332;28;20043;-74
2022/08/13 11:43:27;;;;;;;1.05;0.40;;;;;;;;;;5109167;27;20421;-73
2022/08/13 11:45:52;;;;;;;1.35;0.50;;;35.50;69.50;;;;;;5104839;28;20028;-73
2022/08/13 11:48:20;;;;;;;2.28;0.68;;;;;;;;;;5117754;27;20297;-72
2022/08/13 11:50:47;;;;;;;0.65;0.32;;;;;;;;;;5110447;28;20028;-74
2022/08/13 11:53:13;;;;;;;4.05;0.90;;;;;;;;;;5105398;28;20028;-74
2022/08/13 11:55:39;;;;;;;7.20;0.80;;;;;;;;;;5113687;28;20071;-74
2022/08/13 11:58:06;;;;;;;6.70;0.57;;;;;;;;;;5111932;27;20108;-73
2022/08/13 12:00:34;;;;;;;6.20;0.98;;;;;;;;;;5105538;27;20483;-73
2022/08/13 12:03:00;;;;;;;7.20;0.60;;;;;;;;;;5099279;28;20492;-73
2022/08/13 12:05:26;;;;;;;1.48;0.57;;;;;;;;;;5108575;28;20372;-72
2022/08/13 12:07:52;;;;;;;3.25;0.70;;;35.80;69.10;;;;;;5114893;27;20034;-73
2022/08/13 12:10:19;;;;;;;3.65;0.63;;;36.10;69.10;;;;;;5114000;28;20479;-72
2022/08/13 12:12:45;;;;;;;2.15;0.68;;;35.80;55.10;;;;;;5123324;27;20028;-73
2022/08/13 12:15:12;;;;;;;5.32;0.77;;;;;;;;;;5101399;27;20032;-73
2022/08/13 12:17:46;;;;;;;1.75;0.60;;;35.60;57.20;;;;;;5115878;27;20050;-72
2022/08/13 12:20:18;;;;;;;1.25;0.40;;;35.80;56.70;;;;;;5093129;28;20471;-73
2022/08/13 12:22:44;;;;;;;1.85;0.65;;;35.40;68.50;;;;;;5111670;28;20705;-72
2022/08/13 12:25:10;;;;;;;3.25;0.70;;;;;;;;;;5118645;27;20031;-72
2022/08/13 12:27:37;;;;;;;3.50;0.50;;;;;;;;;;5117416;27;20028;-73
2022/08/13 12:30:04;;;;;;;0.63;0.43;;;;;;;;;;5111517;28;20024;-73
2022/08/13 12:32:30;;;;;;;1.75;0.95;;;;;;;;;;5086195;28;20038;-72
2022/08/13 12:34:56;;;;;;;4.47;0.95;;;35.30;64.70;;;;;;5112178;28;20031;-73
2022/08/13 12:37:25;;;;;;;4.93;0.60;;;35.60;54.40;;;;;;5111695;27;20486;-73
2022/08/13 12:39:51;;;;;;;1.75;0.95;;;;;;;;;;5101578;28;20035;-73
2022/08/13 12:42:17;;;;;;;0.63;0.50;;;;;;;;;;5088147;28;20048;-72
2022/08/13 12:44:43;;;;;;;1.90;1.10;;;;;;;;;;5090752;28;20555;-72
2022/08/13 12:47:09;;;;;;;4.03;0.60;;;;;;;;;;5092943;28;20040;-73
2022/08/13 12:49:36;;;;;;;3.75;0.60;;;;;;;;;;5088687;28;20024;-72
2022/08/13 12:52:02;;;;;;;6.10;1.15;;;35.40;68.10;;;;;;5091140;28;20039;-73
2022/08/13 12:54:28;;;;;;;4.43;0.55;;;36.00;58.80;;;;;;5092186;28;20114;-73
2022/08/13 12:56:54;;;;;;;3.33;0.77;;;;;;;;;;5082649;28;20131;-73
2022/08/13 12:59:20;;;;;;;2.15;0.50;;;35.70;67.50;;;;;;5089870;28;20032;-73
2022/08/13 13:01:52;;;;;;;3.95;0.65;;;35.70;67.40;;;;;;5097040;28;20039;-72
2022/08/13 13:04:22;;;;;;;4.75;0.77;;;35.90;55.20;;;;;;5092768;28;20127;-72
2022/08/13 13:06:48;;;;;;;1.17;0.50;;;;;;;;;;5087890;28;20020;-73
2022/08/13 13:09:14;;;;;;;2.00;0.65;;;35.60;67.20;;;;;;5092210;28;20020;-71
2022/08/13 13:11:40;;;;;;;5.93;0.52;;;;;;;;;;5087239;28;20043;-73
2022/08/13 13:14:07;;;;;;;5.88;0.70;;;;;;;;;;5085670;28;20480;-72
2022/08/13 13:16:34;;;;;;;2.75;0.73;;;36.00;68.10;;;;;;5082586;28;20033;-72
2022/08/13 13:19:01;;;;;;;3.17;0.80;;;;;;;;;;5085440;28;20055;-72
2022/08/13 13:21:31;;;;;;;3.60;0.50;;;;;;;;;;5091583;28;20054;-72
2022/08/13 13:23:57;;;;;;;2.50;0.70;;;35.50;67.50;;;;;;5090333;28;20031;-71
2022/08/13 13:26:23;;;;;;;2.20;0.68;;;;;;;;;;5082082;28;20103;-74
2022/08/13 13:28:54;;;;;;;0.77;0.60;;;;;;;;;;5078008;28;20032;-72
2022/08/13 13:31:20;;;;;;;3.30;0.60;;;;;;;;;;5083393;28;20106;-73
2022/08/13 13:33:46;;;;;;;7.35;0.75;;;35.80;67.90;;;;;;5088092;28;20089;-74
2022/08/13 13:36:12;;;;;;;7.10;0.80;;;;;;;;;;5088630;28;20040;-72
2022/08/13 13:38:40;;;;;;;2.53;0.40;;;35.80;67.80;;;;;;5080796;28;20025;-72
2022/08/13 13:41:05;;;;;;;2.13;0.55;;;35.70;67.90;;;;;;5080848;28;20028;-72
2022/08/13 13:43:31;;;;;;;1.00;0.52;;;;;;;;;;5116473;27;20054;-72
2022/08/13 13:45:58;;;;;;;3.20;0.70;;;;;;;;;;5100931;28;20475;-73
2022/08/13 13:48:27;;;;;;;1.58;0.50;;;35.50;66.80;;;;;;5106023;27;20128;-72
2022/08/13 13:50:55;;;;;;;3.70;0.70;;;35.60;55.30;;;;;;5103412;28;20024;-72
2022/08/13 13:53:24;;;;;;;2.15;0.60;;;;;;;;;;5092967;28;20426;-73
2022/08/13 13:55:51;;;;;;;3.20;0.65;;;;;;;;;;5109362;28;20188;-74
2022/08/13 13:58:19;;;;;;;1.75;0.73;;;;;;;;;;5104406;28;20132;-72
2022/08/13 14:00:45;;;;;;;0.77;0.50;;;;;;;;;;5110037;28;20055;-73
2022/08/13 14:03:11;;;;;;;2.05;0.73;;;35.90;67.10;;;;;;5112287;27;20519;-73
2022/08/13 14:05:40;;;;;;;1.75;0.50;;;35.80;52.40;;;;;;5125233;27;20455;-73
2022/08/13 14:08:10;;;;;;;2.50;1.23;;;;;;;;;;5100168;27;20498;-72
2022/08/13 14:10:36;;;;;;;2.38;0.60;;;;;;;;;;5091160;28;20068;-72
2022/08/13 14:13:03;;;;;;;2.38;0.73;;;;;;;;;;5092909;28;20040;-73
2022/08/13 14:15:33;;;;;;;1.73;0.60;;;;;;;;;;5099861;28;20051;-73
2022/08/13 14:18:07;;;;;;;3.47;0.60;;;;;;;;;;5088897;27;20028;-72
2022/08/13 14:20:34;;;;;;;3.55;0.60;;;;;;;;;;5100135;27;20032;-70
2022/08/13 14:23:00;;;;;;;0.93;0.50;;;;;;;;;;5103427;27;20039;-71
2022/08/13 14:25:26;;;;;;;1.20;0.65;;;36.10;66.60;;;;;;5086871;28;20119;-71
2022/08/13 14:27:53;;;;;;;1.92;0.65;;;35.60;52.30;;;;;;5098902;27;20522;-73
2022/08/13 14:30:19;;;;;;;2.78;0.60;;;35.70;66.50;;;;;;5094290;28;20028;-73